Armington, Montana
Current Conditions -  °F | °C
As of 4:56 AM on Monday 20 Oct 2014 (Local Time) from KGFA Reporting Station
Clear Clear  
Wind Chill: 48°   Ceiling: Unl
Heat Index: 48°   Visibility: 10mi
Dew Point: 30°   Wind: 1mph
Humidity: 48%   Direction: NA
Pressure: 29.88"   Gusts: NA
Location:  47.3298°N, 110.893°W
Report Text: KGFA 201056Z AUTO VRB01KT 10SM CLR 09/M01 A2988 RMK AO2 SLP112 T00911013
Loading
Personal Weather Stations






























Interactive Weather Map New forecast layout! Learn more

10-Day Weather Forecast

Advertisements
Track Severe Weather on mobile